createdAt,value
2019-02-14T00:01:43.970Z,99.90
2019-02-14T00:06:48.253Z,99.90
2019-02-14T00:11:52.567Z,99.90
2019-02-14T00:16:56.809Z,99.90
2019-02-14T00:22:01.031Z,99.90
2019-02-14T00:27:05.345Z,99.90
2019-02-14T00:32:09.543Z,99.90
2019-02-14T00:37:13.763Z,99.90
2019-02-14T00:42:17.962Z,99.90
2019-02-14T00:47:22.233Z,99.90
2019-02-14T00:52:26.427Z,99.90
2019-02-14T00:57:30.625Z,99.90
2019-02-14T01:02:34.835Z,99.90
2019-02-14T01:07:39.171Z,99.90
2019-02-14T01:12:43.481Z,99.90
2019-02-14T01:17:47.762Z,99.90
2019-02-14T01:22:51.967Z,99.90
2019-02-14T01:27:56.217Z,99.90
2019-02-14T01:33:00.506Z,99.90
2019-02-14T01:38:04.845Z,99.90
2019-02-14T01:43:09.071Z,99.90
2019-02-14T01:48:13.279Z,99.90
2019-02-14T01:53:17.552Z,99.90
2019-02-14T01:58:21.761Z,99.90
2019-02-14T02:03:25.956Z,99.90
2019-02-14T02:08:30.158Z,99.90
2019-02-14T02:13:34.375Z,99.90
2019-02-14T02:18:39.690Z,99.90
2019-02-14T02:23:43.866Z,99.90
2019-02-14T02:28:48.193Z,99.90
2019-02-14T02:33:52.452Z,99.90
2019-02-14T02:38:56.653Z,99.90
2019-02-14T02:44:00.860Z,99.90
2019-02-14T02:49:05.145Z,99.90
2019-02-14T02:54:09.380Z,99.90
2019-02-14T02:59:14.250Z,99.90
2019-02-14T03:04:18.560Z,99.90
2019-02-14T03:09:22.762Z,99.90
2019-02-14T03:14:26.952Z,99.90
2019-02-14T03:19:31.252Z,99.90
2019-02-14T03:24:35.503Z,99.90
2019-02-14T03:29:39.713Z,99.90
2019-02-14T03:34:43.930Z,99.90
2019-02-14T03:39:48.130Z,99.90
2019-02-14T03:44:52.366Z,99.90
2019-02-14T03:49:56.588Z,99.90
2019-02-14T03:55:00.787Z,99.90
2019-02-14T04:00:09.367Z,99.90
2019-02-14T04:05:13.770Z,99.90
2019-02-14T04:10:17.987Z,99.90
2019-02-14T04:15:22.298Z,99.90
2019-02-14T04:20:26.525Z,99.90
2019-02-14T04:25:30.805Z,99.90
2019-02-14T04:30:35.103Z,99.90
2019-02-14T04:35:39.394Z,99.90
2019-02-14T04:40:43.707Z,99.90
2019-02-14T04:45:47.919Z,99.90
2019-02-14T04:50:52.127Z,99.90
2019-02-14T04:55:56.348Z,99.90
2019-02-14T05:01:00.654Z,99.90
2019-02-14T05:06:04.923Z,99.90
2019-02-14T05:11:09.142Z,99.90
2019-02-14T05:16:13.469Z,99.90
2019-02-14T05:21:17.767Z,99.90
2019-02-14T05:26:22.695Z,99.90
2019-02-14T05:31:27.163Z,99.90
2019-02-14T05:36:31.396Z,99.90
2019-02-14T05:41:35.622Z,99.90
2019-02-14T05:46:39.958Z,99.90
2019-02-14T05:51:44.267Z,99.90
2019-02-14T05:56:48.505Z,99.90
2019-02-14T06:01:52.864Z,99.90
2019-02-14T06:07:01.111Z,99.90
2019-02-14T06:12:03.084Z,99.90
2019-02-14T06:17:07.375Z,99.90
2019-02-14T06:22:11.750Z,99.90
2019-02-14T06:27:15.956Z,99.90
2019-02-14T06:32:20.172Z,99.90
2019-02-14T06:37:24.370Z,99.90
2019-02-14T06:42:28.574Z,99.90
2019-02-14T06:47:32.766Z,99.90
2019-02-14T06:52:36.994Z,99.90
2019-02-14T06:57:41.284Z,99.90
2019-02-14T07:02:45.519Z,99.90
2019-02-14T07:07:49.693Z,99.90
2019-02-14T07:12:53.956Z,99.90
2019-02-14T07:17:58.148Z,99.90
2019-02-14T07:23:02.347Z,99.90
2019-02-14T07:28:06.573Z,99.90
2019-02-14T07:33:10.792Z,99.90
2019-02-14T07:38:15.067Z,99.90
2019-02-14T07:43:19.348Z,99.90
2019-02-14T07:48:23.547Z,99.90
2019-02-14T07:53:27.776Z,99.90
2019-02-14T07:58:32.243Z,99.90
2019-02-14T08:03:36.539Z,99.90
2019-02-14T08:08:40.851Z,99.90
2019-02-14T08:13:45.167Z,99.90
2019-02-14T08:18:49.511Z,99.90
2019-02-14T08:23:53.741Z,99.90
2019-02-14T08:34:01.873Z,99.90
2019-02-14T08:44:09.973Z,99.90
2019-02-14T08:49:14.253Z,97.20
2019-02-14T08:54:18.555Z,99.90
2019-02-14T08:59:22.855Z,99.90
2019-02-14T09:04:27.154Z,99.90
2019-02-14T09:09:31.430Z,95.30
2019-02-14T09:19:39.554Z,63.60
2019-02-14T09:24:43.823Z,63.00
2019-02-14T09:29:48.043Z,64.40
2019-02-14T09:34:52.353Z,65.20
2019-02-14T09:39:56.567Z,93.60
2019-02-14T09:45:00.925Z,94.10
2019-02-14T09:50:06.587Z,94.50
2019-02-14T09:55:11.286Z,96.60
2019-02-14T10:00:16.278Z,99.90
2019-02-14T10:05:20.548Z,99.90
2019-02-14T10:10:24.790Z,99.90
2019-02-14T10:15:29.082Z,99.90
2019-02-14T10:25:37.062Z,99.90
2019-02-14T10:30:41.312Z,99.90
2019-02-14T10:35:45.586Z,99.90
2019-02-14T10:40:49.814Z,98.00
2019-02-14T10:45:54.039Z,90.20
2019-02-14T10:50:59.398Z,91.70
2019-02-14T10:56:03.621Z,90.50
2019-02-14T11:05:47.836Z,70.30
2019-02-14T11:10:52.133Z,64.70
2019-02-14T11:15:56.346Z,67.90
2019-02-14T11:21:00.566Z,87.30
2019-02-14T11:26:04.768Z,75.60
2019-02-14T11:31:09.019Z,85.10
2019-02-14T11:36:13.248Z,80.10
2019-02-14T11:41:17.547Z,79.90
2019-02-14T11:51:25.417Z,79.60
2019-02-14T11:56:29.612Z,73.40
2019-02-14T12:01:33.813Z,58.80
2019-02-14T12:06:38.113Z,58.00
2019-02-14T12:11:42.545Z,59.10
2019-02-14T12:20:28.899Z,52.20
2019-02-14T12:25:33.147Z,58.30
2019-02-14T12:30:37.367Z,55.60
2019-02-14T12:45:49.064Z,51.10
2019-02-14T12:50:53.347Z,51.90
2019-02-14T12:55:57.621Z,49.20
2019-02-14T13:01:01.852Z,46.40
2019-02-14T13:06:06.181Z,47.40
2019-02-14T13:11:10.490Z,48.20
2019-02-14T13:16:14.756Z,47.90
2019-02-14T13:21:19.088Z,54.90
2019-02-14T13:26:23.363Z,53.20
2019-02-14T13:31:31.842Z,54.80
2019-02-14T13:36:33.621Z,55.50
2019-02-14T13:41:37.850Z,55.20
2019-02-14T13:46:42.186Z,56.70
2019-02-14T13:51:46.414Z,54.70
2019-02-14T13:56:54.085Z,55.20
2019-02-14T14:01:56.580Z,49.60
2019-02-14T14:07:00.849Z,51.00
2019-02-14T14:12:05.248Z,56.40
2019-02-14T14:17:09.460Z,60.90
2019-02-14T14:22:13.687Z,61.50
2019-02-14T14:27:17.948Z,52.30
2019-02-14T14:32:22.256Z,48.50
2019-02-14T14:37:26.519Z,46.90
2019-02-14T14:42:52.325Z,45.10
2019-02-14T14:47:56.675Z,46.50
2019-02-14T14:53:00.938Z,41.90
2019-02-14T14:58:05.263Z,41.30
2019-02-14T15:03:09.513Z,49.90
2019-02-14T15:08:13.739Z,44.60
2019-02-14T15:13:18.084Z,59.90
2019-02-14T15:18:22.328Z,65.80
2019-02-14T15:23:26.529Z,77.70
2019-02-14T15:28:30.749Z,87.30
2019-02-14T15:33:34.997Z,91.70
2019-02-14T15:38:39.279Z,93.90
2019-02-14T15:43:43.487Z,97.70
2019-02-14T15:48:48.181Z,99.50
2019-02-14T15:53:52.478Z,99.90
2019-02-14T15:58:57.411Z,99.90
2019-02-14T16:04:02.528Z,99.90
2019-02-14T16:09:07.478Z,99.90
2019-02-14T16:14:11.711Z,99.90
2019-02-14T16:19:16.017Z,99.10
2019-02-14T16:24:20.230Z,99.70
2019-02-14T16:29:25.023Z,99.90
2019-02-14T16:34:30.738Z,99.90
2019-02-14T16:39:35.008Z,99.90
2019-02-14T16:44:39.213Z,99.90
2019-02-14T16:49:43.531Z,99.90
2019-02-14T16:59:51.819Z,99.90
2019-02-14T17:11:02.914Z,99.90
2019-02-14T17:16:07.155Z,99.90
2019-02-14T17:21:11.405Z,99.90
2019-02-14T17:26:15.625Z,99.90
2019-02-14T17:31:19.932Z,99.90
2019-02-14T17:36:24.354Z,99.90
2019-02-14T17:41:28.622Z,99.90
2019-02-14T17:46:32.910Z,99.90
2019-02-14T17:51:37.194Z,99.90
2019-02-14T17:56:41.512Z,99.90
2019-02-14T18:01:45.888Z,99.90
2019-02-14T18:06:50.228Z,99.90
2019-02-14T18:11:55.004Z,99.90
2019-02-14T18:16:59.308Z,99.90
2019-02-14T18:22:03.629Z,99.90
2019-02-14T18:27:07.929Z,99.90
2019-02-14T18:32:12.132Z,99.90
2019-02-14T18:37:16.377Z,99.90
2019-02-14T18:42:20.699Z,99.90
2019-02-14T18:47:24.951Z,99.90
2019-02-14T18:52:29.141Z,99.90
2019-02-14T18:57:33.375Z,99.90
2019-02-14T19:02:37.681Z,99.90
2019-02-14T19:07:42.004Z,99.90
2019-02-14T19:12:46.299Z,99.90
2019-02-14T19:17:50.609Z,99.90
2019-02-14T19:22:54.917Z,99.90
2019-02-14T19:27:59.139Z,99.90
2019-02-14T19:33:03.428Z,99.90
2019-02-14T19:38:07.808Z,99.90
2019-02-14T19:43:12.125Z,99.90
2019-02-14T19:48:16.569Z,99.90
2019-02-14T19:53:20.866Z,99.90
2019-02-14T19:58:25.177Z,99.90
2019-02-14T20:03:31.791Z,99.90
2019-02-14T20:08:35.451Z,99.90
2019-02-14T20:13:39.826Z,99.90
2019-02-14T20:18:44.144Z,99.90
2019-02-14T20:23:48.546Z,99.90
2019-02-14T20:28:52.752Z,99.90
2019-02-14T20:33:56.976Z,99.90
2019-02-14T20:39:01.289Z,99.90
2019-02-14T20:44:05.688Z,99.90
2019-02-14T20:49:10.002Z,99.90
2019-02-14T20:54:14.272Z,99.90
2019-02-14T20:59:18.481Z,99.90
2019-02-14T21:04:22.750Z,99.90
2019-02-14T21:09:26.985Z,99.90
2019-02-14T21:14:31.250Z,99.90
2019-02-14T21:19:35.466Z,99.90
2019-02-14T21:24:39.675Z,99.90
2019-02-14T21:29:45.057Z,99.90
2019-02-14T21:34:49.332Z,99.90
2019-02-14T21:39:53.636Z,99.90
2019-02-14T21:44:57.921Z,99.90
2019-02-14T21:50:02.251Z,99.90
2019-02-14T21:55:08.495Z,99.90
2019-02-14T22:00:15.442Z,99.90
2019-02-14T22:05:24.693Z,99.90
2019-02-14T22:10:25.743Z,99.90
2019-02-14T22:15:30.044Z,99.90
2019-02-14T22:20:34.374Z,99.90
2019-02-14T22:25:38.688Z,99.90
2019-02-14T22:30:42.888Z,99.90
2019-02-14T22:35:47.108Z,99.90
2019-02-14T22:40:51.618Z,99.90
2019-02-14T22:45:55.801Z,99.90
2019-02-14T22:50:59.986Z,99.90
2019-02-14T22:56:04.189Z,99.90
2019-02-14T23:01:08.467Z,99.90
2019-02-14T23:06:12.671Z,99.90
2019-02-14T23:11:16.956Z,99.90
2019-02-14T23:16:21.270Z,99.90
2019-02-14T23:21:25.511Z,99.90
2019-02-14T23:26:31.670Z,99.90
2019-02-14T23:31:35.891Z,99.90
2019-02-14T23:36:40.099Z,99.90
2019-02-14T23:41:44.296Z,99.90
2019-02-14T23:46:48.490Z,99.90
2019-02-14T23:51:52.843Z,99.90
2019-02-14T23:56:57.134Z,99.90
